sensor_id;sensor_type;location;lat;lon;timestamp;pressure;altitude;pressure_sealevel;temperature;humidity
57990;BME280;58373;51.824;5.564;2023-04-22T00:01:57;100761.78;;;8.15;87.82
57990;BME280;58373;51.824;5.564;2023-04-22T00:04:22;100766.13;;;8.14;88.18
57990;BME280;58373;51.824;5.564;2023-04-22T00:06:47;100757.88;;;8.09;87.93
57990;BME280;58373;51.824;5.564;2023-04-22T00:09:13;100758.69;;;8.10;88.14
57990;BME280;58373;51.824;5.564;2023-04-22T00:11:38;100755.38;;;8.08;88.65
57990;BME280;58373;51.824;5.564;2023-04-22T00:14:03;100757.25;;;8.06;88.60
57990;BME280;58373;51.824;5.564;2023-04-22T00:16:28;100745.50;;;8.02;88.22
57990;BME280;58373;51.824;5.564;2023-04-22T00:18:53;100748.31;;;7.98;88.37
57990;BME280;58373;51.824;5.564;2023-04-22T00:21:19;100751.09;;;7.95;88.85
57990;BME280;58373;51.824;5.564;2023-04-22T00:23:44;100738.44;;;7.92;88.71
57990;BME280;58373;51.824;5.564;2023-04-22T00:26:10;100744.72;;;7.88;88.05
57990;BME280;58373;51.824;5.564;2023-04-22T00:28:35;100745.88;;;7.84;88.76
57990;BME280;58373;51.824;5.564;2023-04-22T00:31:00;100751.28;;;7.81;88.97
57990;BME280;58373;51.824;5.564;2023-04-22T00:33:27;100742.09;;;7.77;88.73
57990;BME280;58373;51.824;5.564;2023-04-22T00:35:52;100752.41;;;7.77;88.46
57990;BME280;58373;51.824;5.564;2023-04-22T00:38:18;100742.53;;;7.71;88.95
57990;BME280;58373;51.824;5.564;2023-04-22T00:40:43;100756.56;;;7.67;88.46
57990;BME280;58373;51.824;5.564;2023-04-22T00:43:09;100757.75;;;7.63;88.93
57990;BME280;58373;51.824;5.564;2023-04-22T00:45:35;100756.19;;;7.60;88.94
57990;BME280;58373;51.824;5.564;2023-04-22T00:48:01;100757.25;;;7.58;89.67
57990;BME280;58373;51.824;5.564;2023-04-22T00:50:26;100753.72;;;7.59;89.81
57990;BME280;58373;51.824;5.564;2023-04-22T00:52:51;100756.19;;;7.60;90.12
57990;BME280;58373;51.824;5.564;2023-04-22T00:55:16;100753.41;;;7.63;89.58
57990;BME280;58373;51.824;5.564;2023-04-22T00:57:42;100753.28;;;7.65;89.73
57990;BME280;58373;51.824;5.564;2023-04-22T01:00:07;100753.91;;;7.68;89.79
57990;BME280;58373;51.824;5.564;2023-04-22T01:02:34;100751.22;;;7.70;90.02
57990;BME280;58373;51.824;5.564;2023-04-22T01:05:00;100752.03;;;7.70;90.38
57990;BME280;58373;51.824;5.564;2023-04-22T01:07:26;100749.56;;;7.69;89.64
57990;BME280;58373;51.824;5.564;2023-04-22T01:09:51;100746.25;;;7.67;89.92
57990;BME280;58373;51.824;5.564;2023-04-22T01:12:16;100756.56;;;7.67;89.79
57990;BME280;58373;51.824;5.564;2023-04-22T01:14:41;100753.28;;;7.65;89.72
57990;BME280;58373;51.824;5.564;2023-04-22T01:17:07;100746.69;;;7.61;89.89
57990;BME280;58373;51.824;5.564;2023-04-22T01:19:34;100745.03;;;7.60;90.25
57990;BME280;58373;51.824;5.564;2023-04-22T01:21:59;100743.41;;;7.59;90.57
57990;BME280;58373;51.824;5.564;2023-04-22T01:24:25;100739.19;;;7.58;90.31
57990;BME280;58373;51.824;5.564;2023-04-22T01:26:51;100736.78;;;7.55;90.09
57990;BME280;58373;51.824;5.564;2023-04-22T01:29:16;100742.28;;;7.50;90.23
57990;BME280;58373;51.824;5.564;2023-04-22T01:31:42;100730.41;;;7.48;90.23
57990;BME280;58373;51.824;5.564;2023-04-22T01:34:07;100736.59;;;7.45;90.53
57990;BME280;58373;51.824;5.564;2023-04-22T01:36:32;100736.84;;;7.42;90.96
57990;BME280;58373;51.824;5.564;2023-04-22T01:38:58;100736.44;;;7.35;90.85
57990;BME280;58373;51.824;5.564;2023-04-22T01:41:23;100736.63;;;7.32;91.06
57990;BME280;58373;51.824;5.564;2023-04-22T01:43:49;100730.78;;;7.30;90.41
57990;BME280;58373;51.824;5.564;2023-04-22T01:46:15;100725.72;;;7.29;91.25
57990;BME280;58373;51.824;5.564;2023-04-22T01:48:41;100728.63;;;7.24;90.30
57990;BME280;58373;51.824;5.564;2023-04-22T01:51:06;100735.63;;;7.22;90.67
57990;BME280;58373;51.824;5.564;2023-04-22T01:53:31;100733.16;;;7.21;90.43
57990;BME280;58373;51.824;5.564;2023-04-22T01:55:56;100739.38;;;7.18;90.93
57990;BME280;58373;51.824;5.564;2023-04-22T01:58:22;100742.13;;;7.15;90.61
57990;BME280;58373;51.824;5.564;2023-04-22T02:00:47;100737.91;;;7.14;90.63
57990;BME280;58373;51.824;5.564;2023-04-22T02:03:12;100731.13;;;7.13;90.76
57990;BME280;58373;51.824;5.564;2023-04-22T02:05:38;100732.25;;;7.09;91.08
57990;BME280;58373;51.824;5.564;2023-04-22T02:08:03;100732.94;;;7.11;91.30
57990;BME280;58373;51.824;5.564;2023-04-22T02:10:29;100731.31;;;7.10;91.02
57990;BME280;58373;51.824;5.564;2023-04-22T02:12:54;100737.28;;;7.10;91.38
57990;BME280;58373;51.824;5.564;2023-04-22T02:15:19;100732.94;;;7.11;91.25
57990;BME280;58373;51.824;5.564;2023-04-22T02:17:45;100731.13;;;7.13;91.70
57990;BME280;58373;51.824;5.564;2023-04-22T02:20:11;100719.84;;;7.14;92.24
57990;BME280;58373;51.824;5.564;2023-04-22T02:22:37;100719.66;;;7.17;92.26
57990;BME280;58373;51.824;5.564;2023-04-22T02:25:02;100725.53;;;7.19;91.91
57990;BME280;58373;51.824;5.564;2023-04-22T02:27:28;100720.38;;;7.19;91.87
57990;BME280;58373;51.824;5.564;2023-04-22T02:29:54;100712.53;;;7.21;91.99
57990;BME280;58373;51.824;5.564;2023-04-22T02:32:19;100708.19;;;7.21;92.38
57990;BME280;58373;51.824;5.564;2023-04-22T02:34:44;100714.97;;;7.22;92.84
57990;BME280;58373;51.824;5.564;2023-04-22T02:37:11;100709.81;;;7.22;92.76
57990;BME280;58373;51.824;5.564;2023-04-22T02:39:36;100712.53;;;7.21;92.59
57990;BME280;58373;51.824;5.564;2023-04-22T02:42:01;100704.66;;;7.22;92.71
57990;BME280;58373;51.824;5.564;2023-04-22T02:44:27;100704.66;;;7.22;92.89
57990;BME280;58373;51.824;5.564;2023-04-22T02:46:52;100704.78;;;7.21;92.55
57990;BME280;58373;51.824;5.564;2023-04-22T02:49:17;100708.19;;;7.21;92.93
57990;BME280;58373;51.824;5.564;2023-04-22T02:51:42;100702.09;;;7.22;92.71
57990;BME280;58373;51.824;5.564;2023-04-22T02:54:07;100704.59;;;7.24;93.20
57990;BME280;58373;51.824;5.564;2023-04-22T02:56:33;100697.66;;;7.24;93.19
57990;BME280;58373;51.824;5.564;2023-04-22T02:58:58;100700.25;;;7.24;92.81
57990;BME280;58373;51.824;5.564;2023-04-22T03:01:23;100710.56;;;7.24;92.70
57990;BME280;58373;51.824;5.564;2023-04-22T03:03:48;100702.00;;;7.24;93.58
57990;BME280;58373;51.824;5.564;2023-04-22T03:06:13;100691.78;;;7.22;93.61
57990;BME280;58373;51.824;5.564;2023-04-22T03:08:38;100695.28;;;7.21;93.30
57990;BME280;58373;51.824;5.564;2023-04-22T03:11:04;100695.28;;;7.21;92.97
57990;BME280;58373;51.824;5.564;2023-04-22T03:13:29;100690.25;;;7.19;93.08
57990;BME280;58373;51.824;5.564;2023-04-22T03:15:54;100689.41;;;7.19;93.49
57990;BME280;58373;51.824;5.564;2023-04-22T03:18:19;100687.78;;;7.18;93.50
57990;BME280;58373;51.824;5.564;2023-04-22T03:20:45;100695.59;;;7.16;93.44
57990;BME280;58373;51.824;5.564;2023-04-22T03:23:10;100684.47;;;7.16;93.40
57990;BME280;58373;51.824;5.564;2023-04-22T03:25:35;100687.03;;;7.16;93.95
57990;BME280;58373;51.824;5.564;2023-04-22T03:28:01;100687.97;;;7.15;93.55
57990;BME280;58373;51.824;5.564;2023-04-22T03:30:26;100682.81;;;7.15;93.62
57990;BME280;58373;51.824;5.564;2023-04-22T03:32:51;100689.63;;;7.16;94.25
57990;BME280;58373;51.824;5.564;2023-04-22T03:35:17;100684.47;;;7.16;94.33
57990;BME280;58373;51.824;5.564;2023-04-22T03:37:42;100678.47;;;7.15;94.61
57990;BME280;58373;51.824;5.564;2023-04-22T03:40:08;100674.13;;;7.16;94.53
57990;BME280;58373;51.824;5.564;2023-04-22T03:42:33;100668.28;;;7.14;93.75
57990;BME280;58373;51.824;5.564;2023-04-22T03:44:58;100671.69;;;7.14;94.59
57990;BME280;58373;51.824;5.564;2023-04-22T03:47:24;100677.66;;;7.15;94.42
57990;BME280;58373;51.824;5.564;2023-04-22T03:49:49;100672.50;;;7.15;94.37
57990;BME280;58373;51.824;5.564;2023-04-22T03:52:14;100673.31;;;7.15;94.03
57990;BME280;58373;51.824;5.564;2023-04-22T03:54:40;100675.19;;;7.13;94.09
57990;BME280;58373;51.824;5.564;2023-04-22T03:57:05;100669.22;;;7.13;94.08
57990;BME280;58373;51.824;5.564;2023-04-22T03:59:31;100667.56;;;7.12;94.29
57990;BME280;58373;51.824;5.564;2023-04-22T04:01:56;100655.81;;;7.08;95.06
57990;BME280;58373;51.824;5.564;2023-04-22T04:04:21;100655.81;;;7.08;95.10
57990;BME280;58373;51.824;5.564;2023-04-22T04:06:47;100660.97;;;7.08;94.42
57990;BME280;58373;51.824;5.564;2023-04-22T04:09:12;100657.47;;;7.09;95.01
57990;BME280;58373;51.824;5.564;2023-04-22T04:11:38;100652.28;;;7.09;95.24
57990;BME280;58373;51.824;5.564;2023-04-22T04:14:03;100644.56;;;7.09;94.74
57990;BME280;58373;51.824;5.564;2023-04-22T04:16:28;100645.25;;;7.11;95.10
57990;BME280;58373;51.824;5.564;2023-04-22T04:18:53;100642.69;;;7.11;94.87
57990;BME280;58373;51.824;5.564;2023-04-22T04:21:19;100646.31;;;7.08;94.80
57990;BME280;58373;51.824;5.564;2023-04-22T04:23:44;100647.25;;;7.07;95.33
57990;BME280;58373;51.824;5.564;2023-04-22T04:26:10;100640.44;;;7.06;95.34
57990;BME280;58373;51.824;5.564;2023-04-22T04:28:35;100638.91;;;7.04;94.92
57990;BME280;58373;51.824;5.564;2023-04-22T04:31:00;100636.19;;;7.05;95.58
57990;BME280;58373;51.824;5.564;2023-04-22T04:33:29;100642.22;;;7.06;95.05
57990;BME280;58373;51.824;5.564;2023-04-22T04:35:56;100640.53;;;7.05;95.39
57990;BME280;58373;51.824;5.564;2023-04-22T04:38:22;100650.84;;;7.05;95.07
57990;BME280;58373;51.824;5.564;2023-04-22T04:40:49;100637.06;;;7.06;95.98
57990;BME280;58373;51.824;5.564;2023-04-22T04:43:14;100630.22;;;7.05;95.54
57990;BME280;58373;51.824;5.564;2023-04-22T04:45:40;100624.97;;;7.06;95.69
57990;BME280;58373;51.824;5.564;2023-04-22T04:48:10;100632.72;;;7.06;96.25
57990;BME280;58373;51.824;5.564;2023-04-22T04:50:36;100634.25;;;7.09;96.57
57990;BME280;58373;51.824;5.564;2023-04-22T04:53:02;100631.66;;;7.09;96.00
57990;BME280;58373;51.824;5.564;2023-04-22T04:55:27;100626.50;;;7.09;96.24
57990;BME280;58373;51.824;5.564;2023-04-22T04:57:52;100629.19;;;7.07;95.24
57990;BME280;58373;51.824;5.564;2023-04-22T05:00:17;100630.03;;;7.08;96.19
57990;BME280;58373;51.824;5.564;2023-04-22T05:02:43;100645.25;;;7.11;95.55
57990;BME280;58373;51.824;5.564;2023-04-22T05:05:08;100637.44;;;7.12;96.33
57990;BME280;58373;51.824;5.564;2023-04-22T05:07:34;100643.19;;;7.16;95.80
57990;BME280;58373;51.824;5.564;2023-04-22T05:09:59;100641.34;;;7.18;96.23
57990;BME280;58373;51.824;5.564;2023-04-22T05:12:25;100635.97;;;7.21;96.28
57990;BME280;58373;51.824;5.564;2023-04-22T05:14:50;100640.09;;;7.24;96.48
57990;BME280;58373;51.824;5.564;2023-04-22T05:17:15;100642.56;;;7.25;96.66
57990;BME280;58373;51.824;5.564;2023-04-22T05:19:41;100637.41;;;7.25;97.06
57990;BME280;58373;51.824;5.564;2023-04-22T05:22:06;100641.50;;;7.28;96.45
57990;BME280;58373;51.824;5.564;2023-04-22T05:24:31;100644.00;;;7.29;96.69
57990;BME280;58373;51.824;5.564;2023-04-22T05:26:56;100652.44;;;7.31;97.26
57990;BME280;58373;51.824;5.564;2023-04-22T05:29:22;100648.09;;;7.32;96.96
57990;BME280;58373;51.824;5.564;2023-04-22T05:31:47;100639.44;;;7.33;97.00
57990;BME280;58373;51.824;5.564;2023-04-22T05:34:12;100641.91;;;7.34;97.67
57990;BME280;58373;51.824;5.564;2023-04-22T05:36:38;100629.72;;;7.36;97.83
57990;BME280;58373;51.824;5.564;2023-04-22T05:39:03;100631.38;;;7.37;97.60
57990;BME280;58373;51.824;5.564;2023-04-22T05:41:28;100632.19;;;7.38;97.15
57990;BME280;58373;51.824;5.564;2023-04-22T05:43:54;100626.22;;;7.37;96.93
57990;BME280;58373;51.824;5.564;2023-04-22T05:46:19;100630.53;;;7.37;96.89
57990;BME280;58373;51.824;5.564;2023-04-22T05:48:44;100628.09;;;7.35;96.67
57990;BME280;58373;51.824;5.564;2023-04-22T05:51:09;100633.94;;;7.37;97.41
57990;BME280;58373;51.824;5.564;2023-04-22T05:53:34;100641.69;;;7.37;97.63
57990;BME280;58373;51.824;5.564;2023-04-22T05:56:00;100636.31;;;7.40;97.00
57990;BME280;58373;51.824;5.564;2023-04-22T05:58:25;100635.16;;;7.44;97.63
57990;BME280;58373;51.824;5.564;2023-04-22T06:00:50;100637.53;;;7.48;97.50
57990;BME280;58373;51.824;5.564;2023-04-22T06:03:15;100641.41;;;7.53;98.04
57990;BME280;58373;51.824;5.564;2023-04-22T06:05:40;100630.03;;;7.56;97.59
57990;BME280;58373;51.824;5.564;2023-04-22T06:08:07;100636.63;;;7.60;98.45
57990;BME280;58373;51.824;5.564;2023-04-22T06:10:32;100641.59;;;7.63;98.25
57990;BME280;58373;51.824;5.564;2023-04-22T06:12:57;100638.06;;;7.64;98.34
57990;BME280;58373;51.824;5.564;2023-04-22T06:15:24;100632.66;;;7.67;98.71
57990;BME280;58373;51.824;5.564;2023-04-22T06:17:49;100620.94;;;7.63;98.28
57990;BME280;58373;51.824;5.564;2023-04-22T06:20:14;100619.56;;;7.70;98.46
57990;BME280;58373;51.824;5.564;2023-04-22T06:22:40;100628.69;;;7.74;98.06
57990;BME280;58373;51.824;5.564;2023-04-22T06:25:05;100623.22;;;7.79;98.42
57990;BME280;58373;51.824;5.564;2023-04-22T06:27:30;100619.34;;;7.84;98.85
57990;BME280;58373;51.824;5.564;2023-04-22T06:29:55;100608.56;;;7.90;100.00
57990;BME280;58373;51.824;5.564;2023-04-22T06:32:20;100613.28;;;7.96;100.00
57990;BME280;58373;51.824;5.564;2023-04-22T06:34:46;100605.00;;;8.04;100.00
57990;BME280;58373;51.824;5.564;2023-04-22T06:37:11;100604.41;;;8.12;100.00
57990;BME280;58373;51.824;5.564;2023-04-22T06:39:36;100604.63;;;8.20;99.85
57990;BME280;58373;51.824;5.564;2023-04-22T06:42:01;100603.03;;;8.30;100.00
57990;BME280;58373;51.824;5.564;2023-04-22T06:44:27;100598.16;;;8.38;100.00
57990;BME280;58373;51.824;5.564;2023-04-22T06:46:53;100609.19;;;8.51;100.00
57990;BME280;58373;51.824;5.564;2023-04-22T06:49:18;100608.25;;;8.64;100.00
57990;BME280;58373;51.824;5.564;2023-04-22T06:51:43;100607.53;;;8.73;100.00
57990;BME280;58373;51.824;5.564;2023-04-22T06:54:08;100616.34;;;8.82;100.00
57990;BME280;58373;51.824;5.564;2023-04-22T06:56:34;100607.16;;;8.89;100.00
57990;BME280;58373;51.824;5.564;2023-04-22T06:59:00;100600.44;;;8.97;100.00
57990;BME280;58373;51.824;5.564;2023-04-22T07:01:25;100598.78;;;9.08;100.00
57990;BME280;58373;51.824;5.564;2023-04-22T07:03:50;100587.47;;;9.20;100.00
57990;BME280;58373;51.824;5.564;2023-04-22T07:06:15;100595.06;;;9.32;100.00
57990;BME280;58373;51.824;5.564;2023-04-22T07:08:40;100589.72;;;9.45;100.00
57990;BME280;58373;51.824;5.564;2023-04-22T07:11:06;100592.28;;;9.56;100.00
57990;BME280;58373;51.824;5.564;2023-04-22T07:13:31;100584.72;;;9.65;100.00
57990;BME280;58373;51.824;5.564;2023-04-22T07:15:58;100590.78;;;9.75;100.00
57990;BME280;58373;51.824;5.564;2023-04-22T07:18:24;100582.94;;;9.86;99.95
57990;BME280;58373;51.824;5.564;2023-04-22T07:20:49;100580.56;;;9.94;99.55
57990;BME280;58373;51.824;5.564;2023-04-22T07:23:14;100582.34;;;10.03;100.00
57990;BME280;58373;51.824;5.564;2023-04-22T07:25:40;100592.66;;;10.15;99.98
57990;BME280;58373;51.824;5.564;2023-04-22T07:28:05;100596.28;;;10.23;99.62
57990;BME280;58373;51.824;5.564;2023-04-22T07:30:30;100594.97;;;10.29;99.27
57990;BME280;58373;51.824;5.564;2023-04-22T07:32:55;100593.75;;;10.33;99.00
57990;BME280;58373;51.824;5.564;2023-04-22T07:35:20;100591.59;;;10.38;99.13
57990;BME280;58373;51.824;5.564;2023-04-22T07:37:46;100588.22;;;10.47;98.93
57990;BME280;58373;51.824;5.564;2023-04-22T07:40:11;100583.91;;;10.57;99.12
57990;BME280;58373;51.824;5.564;2023-04-22T07:42:38;100585.56;;;10.68;99.30
57990;BME280;58373;51.824;5.564;2023-04-22T07:45:03;100583.69;;;10.80;99.91
57990;BME280;58373;51.824;5.564;2023-04-22T07:47:29;100583.16;;;10.86;98.60
57990;BME280;58373;51.824;5.564;2023-04-22T07:49:54;100580.72;;;10.94;98.83
57990;BME280;58373;51.824;5.564;2023-04-22T07:52:19;100588.53;;;11.04;98.73
57990;BME280;58373;51.824;5.564;2023-04-22T07:54:45;100593.59;;;11.15;97.70
57990;BME280;58373;51.824;5.564;2023-04-22T07:57:10;100589.50;;;11.22;97.90
57990;BME280;58373;51.824;5.564;2023-04-22T07:59:35;100592.78;;;11.34;98.06
57990;BME280;58373;51.824;5.564;2023-04-22T08:02:00;100591.69;;;11.46;97.93
57990;BME280;58373;51.824;5.564;2023-04-22T08:04:26;100590.06;;;11.55;96.70
57990;BME280;58373;51.824;5.564;2023-04-22T08:06:51;100593.63;;;11.63;96.75
57990;BME280;58373;51.824;5.564;2023-04-22T08:09:16;100588.97;;;11.77;96.13
57990;BME280;58373;51.824;5.564;2023-04-22T08:11:41;100570.66;;;11.88;96.28
57990;BME280;58373;51.824;5.564;2023-04-22T08:14:06;100563.53;;;12.00;96.52
57990;BME280;58373;51.824;5.564;2023-04-22T08:16:32;100551.44;;;12.08;95.78
57990;BME280;58373;51.824;5.564;2023-04-22T08:18:57;100547.31;;;12.15;95.39
57990;BME280;58373;51.824;5.564;2023-04-22T08:21:22;100549.22;;;12.23;94.69
57990;BME280;58373;51.824;5.564;2023-04-22T08:23:47;100546.44;;;12.34;95.38
57990;BME280;58373;51.824;5.564;2023-04-22T08:26:13;100549.94;;;12.43;94.19
57990;BME280;58373;51.824;5.564;2023-04-22T08:28:40;100542.53;;;12.48;93.98
57990;BME280;58373;51.824;5.564;2023-04-22T08:31:06;100551.28;;;12.57;93.32
57990;BME280;58373;51.824;5.564;2023-04-22T08:33:33;100551.19;;;12.66;93.13
57990;BME280;58373;51.824;5.564;2023-04-22T08:35:58;100546.09;;;12.74;93.14
57990;BME280;58373;51.824;5.564;2023-04-22T08:38:23;100550.41;;;12.84;93.30
57990;BME280;58373;51.824;5.564;2023-04-22T08:40:49;100543.69;;;12.91;93.07
57990;BME280;58373;51.824;5.564;2023-04-22T08:43:14;100549.13;;;12.97;92.32
57990;BME280;58373;51.824;5.564;2023-04-22T08:45:39;100555.91;;;13.08;92.46
57990;BME280;58373;51.824;5.564;2023-04-22T08:48:07;100545.94;;;13.21;92.24
57990;BME280;58373;51.824;5.564;2023-04-22T08:50:32;100542.81;;;13.36;92.13
57990;BME280;58373;51.824;5.564;2023-04-22T08:52:58;100535.06;;;13.44;91.13
57990;BME280;58373;51.824;5.564;2023-04-22T08:55:23;100536.09;;;13.51;90.96
57990;BME280;58373;51.824;5.564;2023-04-22T08:57:49;100536.03;;;13.61;90.79
57990;BME280;58373;51.824;5.564;2023-04-22T09:00:14;100533.81;;;13.74;90.68
57990;BME280;58373;51.824;5.564;2023-04-22T09:02:40;100529.16;;;13.86;90.30
57990;BME280;58373;51.824;5.564;2023-04-22T09:05:08;100514.25;;;13.96;88.97
57990;BME280;58373;51.824;5.564;2023-04-22T09:07:34;100508.94;;;14.05;88.49
57990;BME280;58373;51.824;5.564;2023-04-22T09:10:00;100495.41;;;14.10;87.05
57990;BME280;58373;51.824;5.564;2023-04-22T09:12:25;100499.19;;;14.16;87.94
57990;BME280;58373;51.824;5.564;2023-04-22T09:14:51;100496.09;;;14.20;88.15
57990;BME280;58373;51.824;5.564;2023-04-22T09:17:17;100496.81;;;14.30;88.19
57990;BME280;58373;51.824;5.564;2023-04-22T09:19:43;100497.50;;;14.41;87.16
57990;BME280;58373;51.824;5.564;2023-04-22T09:22:12;100489.22;;;14.45;86.47
57990;BME280;58373;51.824;5.564;2023-04-22T09:24:48;100489.41;;;14.52;87.31
57990;BME280;58373;51.824;5.564;2023-04-22T09:27:13;100482.25;;;14.62;86.76
57990;BME280;58373;51.824;5.564;2023-04-22T09:29:40;100478.69;;;14.71;85.87
57990;BME280;58373;51.824;5.564;2023-04-22T09:32:11;100478.69;;;14.79;85.46
57990;BME280;58373;51.824;5.564;2023-04-22T09:34:55;100492.06;;;14.84;83.57
57990;BME280;58373;51.824;5.564;2023-04-22T09:37:24;100485.56;;;14.88;83.73
57990;BME280;58373;51.824;5.564;2023-04-22T09:39:50;100483.59;;;14.91;83.06
57990;BME280;58373;51.824;5.564;2023-04-22T09:42:16;100490.47;;;14.92;81.37
57990;BME280;58373;51.824;5.564;2023-04-22T09:44:41;100479.84;;;15.01;84.02
57990;BME280;58373;51.824;5.564;2023-04-22T09:47:07;100478.72;;;15.04;83.72
57990;BME280;58373;51.824;5.564;2023-04-22T09:49:37;100482.66;;;15.16;83.70
57990;BME280;58373;51.824;5.564;2023-04-22T09:52:05;100482.63;;;15.24;82.68
57990;BME280;58373;51.824;5.564;2023-04-22T09:54:30;100486.25;;;15.31;82.97
57990;BME280;58373;51.824;5.564;2023-04-22T09:56:56;100482.81;;;15.39;80.74
57990;BME280;58373;51.824;5.564;2023-04-22T09:59:28;100475.28;;;15.44;80.89
57990;BME280;58373;51.824;5.564;2023-04-22T10:01:57;100469.88;;;15.54;81.69
57990;BME280;58373;51.824;5.564;2023-04-22T10:04:24;100472.16;;;15.65;80.54
57990;BME280;58373;51.824;5.564;2023-04-22T10:06:50;100480.66;;;15.75;80.96
57990;BME280;58373;51.824;5.564;2023-04-22T10:09:16;100479.00;;;15.82;79.74
57990;BME280;58373;51.824;5.564;2023-04-22T10:11:42;100481.09;;;15.87;79.60
57990;BME280;58373;51.824;5.564;2023-04-22T10:14:07;100480.56;;;16.00;79.54
57990;BME280;58373;51.824;5.564;2023-04-22T10:16:35;100478.41;;;16.11;78.83
57990;BME280;58373;51.824;5.564;2023-04-22T10:19:03;100479.84;;;16.22;78.03
57990;BME280;58373;51.824;5.564;2023-04-22T10:21:29;100486.03;;;16.29;77.90
57990;BME280;58373;51.824;5.564;2023-04-22T10:23:57;100484.88;;;16.32;77.34
57990;BME280;58373;51.824;5.564;2023-04-22T10:26:38;100491.03;;;16.39;76.96
57990;BME280;58373;51.824;5.564;2023-04-22T10:29:05;100484.28;;;16.53;77.56
57990;BME280;58373;51.824;5.564;2023-04-22T10:31:31;100485.53;;;16.65;77.08
57990;BME280;58373;51.824;5.564;2023-04-22T10:34:12;100494.16;;;16.73;76.46
57990;BME280;58373;51.824;5.564;2023-04-22T10:36:54;100489.72;;;16.74;74.58
57990;BME280;58373;51.824;5.564;2023-04-22T10:39:20;100485.16;;;16.76;75.03
57990;BME280;58373;51.824;5.564;2023-04-22T10:41:49;100480.44;;;16.71;71.85
57990;BME280;58373;51.824;5.564;2023-04-22T10:44:15;100484.84;;;16.71;74.14
57990;BME280;58373;51.824;5.564;2023-04-22T10:49:07;100499.41;;;16.73;74.25
57990;BME280;58373;51.824;5.564;2023-04-22T10:51:42;100504.47;;;16.75;72.68
57990;BME280;58373;51.824;5.564;2023-04-22T10:57:05;100490.69;;;16.81;73.68
57990;BME280;58373;51.824;5.564;2023-04-22T10:59:31;100492.31;;;16.82;72.71
57990;BME280;58373;51.824;5.564;2023-04-22T11:02:02;100488.69;;;16.83;73.85
57990;BME280;58373;51.824;5.564;2023-04-22T11:04:29;100488.38;;;16.86;73.40
57990;BME280;58373;51.824;5.564;2023-04-22T11:07:13;100491.63;;;16.88;72.89
57990;BME280;58373;51.824;5.564;2023-04-22T11:09:42;100488.00;;;16.89;71.69
57990;BME280;58373;51.824;5.564;2023-04-22T11:14:52;100491.56;;;16.96;72.54
57990;BME280;58373;51.824;5.564;2023-04-22T11:17:17;100484.16;;;17.00;72.55
57990;BME280;58373;51.824;5.564;2023-04-22T11:19:43;100476.50;;;16.98;72.38
57990;BME280;58373;51.824;5.564;2023-04-22T11:22:09;100475.19;;;16.94;72.05
57990;BME280;58373;51.824;5.564;2023-04-22T11:24:35;100482.75;;;16.89;72.45
57990;BME280;58373;51.824;5.564;2023-04-22T11:27:00;100484.75;;;16.87;71.93
57990;BME280;58373;51.824;5.564;2023-04-22T11:29:25;100487.06;;;16.82;72.61
57990;BME280;58373;51.824;5.564;2023-04-22T11:31:50;100488.06;;;16.81;71.92
57990;BME280;58373;51.824;5.564;2023-04-22T11:34:16;100490.28;;;16.61;70.99
57990;BME280;58373;51.824;5.564;2023-04-22T11:36:43;100489.66;;;16.51;72.22
57990;BME280;58373;51.824;5.564;2023-04-22T11:39:09;100487.44;;;16.40;71.15
57990;BME280;58373;51.824;5.564;2023-04-22T11:41:39;100493.22;;;16.35;71.45
57990;BME280;58373;51.824;5.564;2023-04-22T11:44:04;100493.88;;;16.29;72.42
57990;BME280;58373;51.824;5.564;2023-04-22T11:46:30;100488.69;;;16.21;73.15
57990;BME280;58373;51.824;5.564;2023-04-22T11:49:11;100490.97;;;16.16;73.74
57990;BME280;58373;51.824;5.564;2023-04-22T11:51:50;100488.41;;;16.08;74.70
57990;BME280;58373;51.824;5.564;2023-04-22T11:54:15;100489.09;;;16.02;74.91
57990;BME280;58373;51.824;5.564;2023-04-22T11:56:40;100480.09;;;15.96;75.14
57990;BME280;58373;51.824;5.564;2023-04-22T11:59:06;100488.13;;;15.95;75.22
57990;BME280;58373;51.824;5.564;2023-04-22T12:01:31;100489.63;;;15.89;75.46
57990;BME280;58373;51.824;5.564;2023-04-22T12:03:59;100485.66;;;15.93;75.52
57990;BME280;58373;51.824;5.564;2023-04-22T12:06:25;100490.13;;;15.76;76.50
57990;BME280;58373;51.824;5.564;2023-04-22T12:08:53;100496.38;;;15.67;77.06
57990;BME280;58373;51.824;5.564;2023-04-22T12:11:19;100489.81;;;15.55;78.21
57990;BME280;58373;51.824;5.564;2023-04-22T12:13:45;100498.63;;;15.46;78.95
57990;BME280;58373;51.824;5.564;2023-04-22T12:16:11;100500.94;;;15.40;79.89
57990;BME280;58373;51.824;5.564;2023-04-22T12:23:28;100496.69;;;15.15;81.15
57990;BME280;58373;51.824;5.564;2023-04-22T12:25:54;100498.63;;;15.13;81.71
57990;BME280;58373;51.824;5.564;2023-04-22T12:28:19;100508.59;;;15.09;82.01
57990;BME280;58373;51.824;5.564;2023-04-22T12:30:44;100503.53;;;15.08;82.75
57990;BME280;58373;51.824;5.564;2023-04-22T12:33:10;100504.50;;;15.07;82.70
57990;BME280;58373;51.824;5.564;2023-04-22T12:35:35;100503.88;;;15.05;83.09
57990;BME280;58373;51.824;5.564;2023-04-22T12:38:00;100500.28;;;15.06;83.74
57990;BME280;58373;51.824;5.564;2023-04-22T12:40:26;100497.66;;;15.06;83.33
57990;BME280;58373;51.824;5.564;2023-04-22T12:42:51;100503.22;;;15.03;83.72
57990;BME280;58373;51.824;5.564;2023-04-22T12:45:16;100505.16;;;15.01;84.12
57990;BME280;58373;51.824;5.564;2023-04-22T12:47:42;100500.91;;;15.00;83.88
57990;BME280;58373;51.824;5.564;2023-04-22T12:50:07;100495.88;;;14.98;84.11
57990;BME280;58373;51.824;5.564;2023-04-22T12:52:33;100494.03;;;14.91;84.39
57990;BME280;58373;51.824;5.564;2023-04-22T12:54:58;100488.81;;;14.91;84.71
57990;BME280;58373;51.824;5.564;2023-04-22T12:57:24;100497.97;;;14.86;85.58
57990;BME280;58373;51.824;5.564;2023-04-22T12:59:49;100491.78;;;14.87;85.11
57990;BME280;58373;51.824;5.564;2023-04-22T13:02:14;100489.16;;;14.87;85.01